CheckWX is a tool to help pilots better visualize weather data.  It is not intended as a substitute for an official pre-flight weather briefing.

19:05:30 UTC

KMNV METAR
Monroe County Airport
Madisonville, Tennessee, USA
Current

31 mins ago

KMNV 261835Z AUTO 06009G15KT 10SM OVC024 11/06 A3020 RMK A01
Observed
Mar-26 @ 18:35 UTC
Wind
  • 060° at 9 KTS
  • Gusting to 15 KTS
Visibility
10 SM
Flight Rules
MVFR
Cloud Levels
  • Overcast at 2,400' AGL
Temperature
11°C / 52°F
Dewpoint
C / 43°F
Humidity
72%
Altimeter
30.2" Hg
Pressure
1022.72 hPa
Previous

51 mins ago

KMNV 261815Z AUTO 06011G17KT 040V100 10SM OVC023 11/06 A3019 RMK A01
Observed
Mar-26 @ 18:15 UTC
Wind
  • 060° at 11 KTS
  • Gusting to 17 KTS
Visibility
10 SM
Flight Rules
MVFR
Cloud Levels
  • Overcast at 2,300' AGL
Temperature
11°C / 52°F
Dewpoint
C / 43°F
Humidity
72%
Altimeter
30.19" Hg
Pressure
1022.32 hPa
Previous

1 hour ago

KMNV 261755Z AUTO 05011G16KT 10SM OVC021 11/06 A3020 RMK A01
Observed
Mar-26 @ 17:55 UTC
Wind
  • 050° at 11 KTS
  • Gusting to 16 KTS
Visibility
10 SM
Flight Rules
MVFR
Cloud Levels
  • Overcast at 2,100' AGL
Temperature
11°C / 52°F
Dewpoint
C / 43°F
Humidity
72%
Altimeter
30.2" Hg
Pressure
1022.72 hPa